Raymond, Nebraska
Current Conditions -  °F | °C
As of 12:54 AM on Sunday 26 Oct 2014 (Local Time) from KLNK Reporting Station
Clear Clear  
Wind Chill: 58°   Ceiling: Unl
Heat Index: 58°   Visibility: 10mi
Dew Point: 43°   Wind: 7mph
Humidity: 58%   Direction: 110°ESE
Pressure: 29.98"   Gusts: NA
Location:  40.96°N, 96.78°W
Report Text: KLNK 260554Z AUTO 11006KT 10SM CLR 14/06 A2998 RMK AO2 SLP147 T01440061 10161 20117 402390061 58012
Loading
Personal Weather Stations






























Interactive Weather Map
Tropical Storm Tracking
New forecast layout! Learn more

10-Day Weather Forecast

Advertisements
Track Severe Weather on mobile